Terminal Aerodrome Forecast
Issued by NWS Atlanta, GA

Home | Current Version | Previous Version | Text Only | Print | Product List | Glossary On
Versions: 1 2 3 4 5 6 7 8 9 10 11 12 13 14 15 16 17 18 19 20 21 22
000
FTUS42 KFFC 041133
TAFMCN
TAF
KMCN 041133Z 0412/0512 20006KT 1/4SM FG BKN002
     FM041400 21007KT 1SM BR BKN003
     FM041600 22010G15KT 6SM BR SCT007 BKN012
     FM041800 22012G17KT P6SM BKN025
     FM050200 21008KT P6SM SCT025 BKN045
     FM050600 20008KT 4SM BR BKN007
     FM051100 21007KT 3SM -SHRA BR OVC005=

USA.gov is the U.S. government's official web portal to all federal, state and local government web resources and services.